Latest Weather Observations for Moorabbin Airport

IDV60801

Issued at 8:32 am EST Wednesday 31 August 2016 (issued every 30 minutes, with the page automatically refreshed every 10 minutes)

About weather observations | Map of weather stations | Latest weather observations for VIC | Other Formats
Station Details ID: 086077 Name: MOORABBIN AIRPORT Lat: -37.98 Lon: 145.10 Height: 12.1 m
Data from the previous 72 hours. | See also: Recent months at Moorabbin Airport
Date/Time
EST
Temp
°C
App
Temp
°C
Dew
Point
°C
Rel
Hum
%
Delta-T
°C
Wind Press
QNH
hPa
Press
MSL
hPa
Rain since
9am
mm
Dir  Spd
km/h
Gust
km/h
Spd
kts
Gust
kts
31/08:30am 15.7 12.5 11.9 78 2.1 NNW 20 30 11 16 1012.9 1012.9 4.4
31/08:00am 14.9 11.9 12.4 85 1.4 N 20 30 11 16 1012.5 1012.5 4.4
31/07:30am 13.8 12.1 12.5 92 0.7 N 13 17 7 9 1012.5 1012.5 4.4
31/07:00am 12.2 10.1 11.1 93 0.6 N 13 15 7 8 1012.2 1012.2 4.4
31/06:30am 12.3 10.2 11.2 93 0.6 N 13 20 7 11 1012.1 1012.1 4.4
31/06:00am 11.0 9.6 9.6 91 0.7 N 7 11 4 6 1011.8 1011.8 4.4
31/05:30am 12.0 10.8 10.2 89 0.9 N 7 11 4 6 1011.6 1011.6 4.4
31/05:00am 12.8 10.7 11.0 89 0.9 N 13 15 7 8 1011.6 1011.6 4.4
31/04:30am 12.6 11.5 10.7 88 1.0 N 7 11 4 6 1011.8 1011.8 4.4
31/04:00am 13.0 11.2 10.9 87 1.1 N 11 15 6 8 1011.8 1011.8 4.4
31/03:30am 13.3 10.7 10.8 85 1.3 NNW 15 22 8 12 1011.6 1011.6 4.4
31/03:00am 13.5 10.5 10.7 83 1.5 N 17 22 9 12 1011.7 1011.7 4.4
31/02:30am 14.1 10.7 11.1 82 1.6 N 20 30 11 16 1012.0 1012.0 4.4
31/02:00am 14.3 10.2 11.3 82 1.6 N 24 33 13 18 1012.2 1012.2 4.4
31/01:30am 14.2 11.4 11.2 82 1.6 N 17 24 9 13 1012.5 1012.5 4.4
31/01:00am 14.1 10.8 11.6 85 1.3 N 20 30 11 16 1012.4 1012.4 4.4
31/12:30am 13.8 11.6 12.0 89 1.0 N 15 20 8 11 1012.7 1012.7 4.4
31/12:00am 13.5 11.6 11.7 89 1.0 N 13 19 7 10 1012.9 1012.9 4.4
 
Date/Time
EST
Temp
°C
App
Temp
°C
Dew
Point
°C
Rel
Hum
%
Delta-T
°C
Wind Press
QNH
hPa
Press
MSL
hPa
Rain since
9am
mm
Dir  Spd
km/h
Gust
km/h
Spd
kts
Gust
kts
30/11:30pm 13.6 11.7 11.8 89 1.0 N 13 19 7 10 1013.2 1013.2 4.0
30/11:00pm 13.7 11.4 11.9 89 1.0 N 15 20 8 11 1013.4 1013.4 3.4
30/10:30pm 13.5 10.8 11.6 88 1.0 N 17 22 9 12 1013.6 1013.6 3.2
30/10:00pm 13.6 10.4 11.3 86 1.2 N 19 26 10 14 1013.7 1013.7 1.8
30/09:30pm 14.1 9.1 11.1 82 1.6 N 28 35 15 19 1013.6 1013.6 1.6
30/09:00pm 14.9 9.8 10.7 76 2.2 N 28 35 15 19 1013.5 1013.5 1.4
30/08:30pm 15.0 9.8 10.4 74 2.4 N 28 41 15 22 1013.4 1013.4 1.4
30/08:00pm 14.9 9.7 10.1 73 2.5 N 28 37 15 20 1013.6 1013.6 1.2
30/07:44pm 15.1 9.8 9.9 71 2.7 N 28 46 15 25 1013.6 1013.6 1.2
30/07:30pm 15.2 9.1 9.8 70 2.8 NNE 32 44 17 24 1013.4 1013.4 1.2
30/07:00pm 15.1 9.3 9.5 69 2.9 NNE 30 43 16 23 1013.9 1013.9 1.2
30/06:30pm 15.3 9.4 9.2 67 3.1 N 30 41 16 22 1014.0 1014.0 1.2
30/06:00pm 15.3 9.8 9.2 67 3.1 N 28 37 15 20 1013.7 1013.7 1.2
30/05:30pm 15.4 7.8 9.1 66 3.2 N 39 50 21 27 1013.4 1013.4 1.2
30/05:00pm 15.6 9.2 9.5 67 3.2 N 33 43 18 23 1013.6 1013.6 1.2
30/04:30pm 14.9 10.3 9.5 70 2.8 N 24 39 13 21 1014.2 1014.2 1.2
30/04:00pm 15.6 9.6 8.6 63 3.6 N 30 46 16 25 1014.9 1014.9 0.8
30/03:31pm 15.9 9.1 7.7 58 4.1 N 33 52 18 28 1014.9 1014.9 0.8
30/03:30pm 16.1 8.9 7.6 57 4.2 N 35 52 19 28 1014.8 1014.8 0.8
30/03:00pm 15.8 11.0 9.0 64 3.5 NNE 24 37 13 20 1015.3 1015.3 0.8
30/02:30pm 15.8 10.3 9.2 65 3.4 N 28 39 15 21 1015.6 1015.6 0.8
30/02:00pm 15.9 11.6 9.3 65 3.4 NNE 22 32 12 17 1016.3 1016.3 0.8
30/01:30pm 15.6 11.9 9.5 67 3.2 N 19 26 10 14 1016.7 1016.7 0.8
30/01:00pm 15.6 11.0 9.5 67 3.2 NNE 24 35 13 19 1016.7 1016.7 0.8
30/12:30pm 15.0 10.9 10.0 72 2.6 NNE 22 30 12 16 1017.5 1017.5 0.8
30/12:00pm 14.0 10.3 9.6 75 2.3 N 19 28 10 15 1018.6 1018.6 0.8
30/11:30am 13.9 10.1 8.9 72 2.5 N 19 26 10 14 1019.4 1019.4 0.4
30/11:00am 13.7 9.5 8.3 70 2.7 N 20 28 11 15 1019.7 1019.7 0.2
30/10:30am 14.1 9.4 7.9 66 3.1 NNE 22 32 12 17 1019.9 1019.9 0.0
30/10:00am 15.1 9.8 6.7 57 4.1 NNE 24 32 13 17 1019.9 1019.9 0.0
30/09:30am 15.3 9.5 6.1 54 4.4 NNE 26 33 14 18 1019.6 1019.6 0.0
30/09:00am 15.1 9.8 6.7 57 4.1 NNE 24 33 13 18 1020.0 1020.0 0.0
30/08:30am 12.6 10.2 6.9 68 2.7 ESE 9 11 5 6 1020.2 1020.3 0.0
30/08:00am 12.1 10.0 6.6 69 2.6 ESE 7 9 4 5 1020.5 1020.6 0.0
30/07:30am 11.2 7.8 5.7 69 2.5 ESE 13 15 7 8 1020.4 1020.5 0.0
30/07:00am 12.6 9.6 5.8 63 3.2 NE 11 17 6 9 1020.5 1020.6 0.0
30/06:30am 12.5 8.8 6.3 66 2.9 NE 15 19 8 10 1020.6 1020.7 0.0
30/06:00am 11.8 8.8 5.9 67 2.7 ENE 11 13 6 7 1020.7 1020.8 0.0
30/05:30am 11.6 9.0 7.7 77 1.9 ENE 11 17 6 9 1020.2 1020.3 0.0
30/05:00am 9.8 7.6 6.3 79 1.6 ESE 7 9 4 5 1020.5 1020.6 0.0
30/04:30am 9.8 6.9 6.3 79 1.6 ESE 11 13 6 7 1020.3 1020.4 0.0
30/04:00am 9.7 6.7 6.1 78 1.7 ESE 11 11 6 6 1020.3 1020.4 0.0
30/03:30am 9.8 8.8 5.8 76 1.8 CALM 0 0 0 0 1020.7 1020.8 0.0
30/03:00am 10.2 7.9 5.8 74 2.0 NNE 7 9 4 5 1021.1 1021.2 0.0
30/02:30am 10.4 7.7 5.8 73 2.1 NNE 9 11 5 6 1021.2 1021.3 0.0
30/02:00am 10.2 7.1 5.6 73 2.1 NE 11 13 6 7 1021.5 1021.6 0.0
30/01:30am 10.4 7.8 6.2 75 2.0 NE 9 13 5 7 1021.4 1021.5 0.0
30/01:00am 9.6 7.3 5.8 77 1.7 NE 7 11 4 6 1021.7 1021.8 0.0
30/12:30am 9.9 7.2 5.5 74 2.0 NNE 9 11 5 6 1021.8 1021.9 0.0
30/12:00am 10.4 7.7 5.6 72 2.2 NNE 9 11 5 6 1021.9 1022.0 0.0
 
Date/Time
EST
Temp
°C
App
Temp
°C
Dew
Point
°C
Rel
Hum
%
Delta-T
°C
Wind Press
QNH
hPa
Press
MSL
hPa
Rain since
9am
mm
Dir  Spd
km/h
Gust
km/h
Spd
kts
Gust
kts
29/11:30pm 11.1 8.2 6.3 72 2.2 NNE 11 13 6 7 1022.5 1022.6 0.0
29/11:00pm 10.4 8.2 5.4 71 2.3 NE 6 7 3 4 1022.6 1022.7 0.0
29/10:30pm 11.7 9.1 6.0 68 2.7 NNE 9 11 5 6 1022.9 1023.0 0.0
29/10:00pm 10.5 7.9 4.4 66 2.7 N 7 7 4 4 1022.7 1022.8 0.0
29/09:30pm 12.0 9.7 5.6 65 3.0 NNE 7 9 4 5 1022.7 1022.8 0.0
29/09:00pm 12.0 9.3 5.4 64 3.0 NE 9 11 5 6 1022.8 1022.9 0.0
29/08:30pm 10.9 7.9 4.1 63 3.0 ENE 9 9 5 5 1022.6 1022.7 0.0
29/08:00pm 12.7 10.2 4.7 58 3.6 NE 7 9 4 5 1022.8 1022.9 0.0
29/07:30pm 12.9 9.3 4.8 58 3.7 NE 13 15 7 8 1022.7 1022.8 0.0
29/07:00pm 13.5 9.8 4.4 54 4.2 NNE 13 15 7 8 1021.9 1022.0 0.0
29/06:30pm 14.7 11.0 4.4 50 4.8 NNE 13 15 7 8 1021.7 1021.8 0.0
29/06:00pm 15.8 11.3 4.2 46 5.4 N 17 24 9 13 1021.8 1021.9 0.0
29/05:30pm 16.3 11.9 4.7 46 5.5 N 17 24 9 13 1021.6 1021.7 0.0
29/05:00pm 17.5 12.6 5.1 44 5.9 N 20 28 11 15 1021.8 1021.9 0.0
29/04:30pm 17.7 11.9 4.3 41 6.3 N 24 33 13 18 1021.6 1021.7 0.0
29/04:00pm 17.8 11.7 4.7 42 6.2 N 26 32 14 17 1021.6 1021.7 0.0
29/03:30pm 19.0 12.9 4.7 39 6.9 N 26 32 14 17 1021.6 1021.7 0.0
29/03:00pm 18.0 12.4 5.2 43 6.2 N 24 33 13 18 1021.5 1021.6 0.0
29/02:30pm 18.7 12.2 4.5 39 6.8 N 28 35 15 19 1021.6 1021.7 0.0
29/02:00pm 18.7 12.8 5.9 43 6.3 N 26 37 14 20 1022.0 1022.1 0.0
29/01:30pm 19.1 14.0 5.9 42 6.5 N 22 30 12 16 1022.2 1022.3 0.0
29/01:00pm 19.1 12.8 5.6 41 6.6 N 28 39 15 21 1022.5 1022.6 0.0
29/12:30pm 16.8 11.5 6.6 51 5.0 N 24 30 13 16 1022.9 1023.0 0.0
29/12:00pm 17.6 11.9 6.5 48 5.5 N 26 32 14 17 1023.2 1023.3 0.0
29/11:30am 17.8 12.5 6.7 48 5.5 N 24 33 13 18 1023.5 1023.6 0.0
29/11:00am 17.4 12.6 7.2 51 5.1 N 22 35 12 19 1024.0 1024.1 0.0
29/10:30am 16.4 11.1 6.8 53 4.7 N 24 32 13 17 1024.3 1024.4 0.0
29/10:00am 16.4 11.2 7.1 54 4.6 N 24 32 13 17 1024.6 1024.7 0.0
29/09:30am 16.0 11.4 6.7 54 4.6 N 20 28 11 15 1024.7 1024.8 0.0
29/09:00am 15.1 11.5 6.7 57 4.1 N 15 22 8 12 1024.7 1024.8 0.0
29/08:30am 14.1 13.5 7.2 63 3.4 CALM 0 0 0 0 1024.7 1024.8 0.0
29/08:00am 11.0 10.3 7.1 77 1.8 CALM 0 0 0 0 1024.3 1024.4 0.0
29/07:30am 8.8 7.7 5.0 77 1.7 CALM 0 0 0 0 1024.0 1024.1 0.0
29/07:00am 8.3 7.0 3.9 74 1.9 CALM 0 2 0 1 1023.5 1023.6 0.0
29/06:30am 10.3 7.8 4.7 68 2.5 N 7 9 4 5 1023.1 1023.2 0.0
29/06:00am 10.1 6.8 4.7 69 2.4 N 11 15 6 8 1022.8 1022.9 0.0
29/05:30am 11.5 6.6 5.2 65 2.9 N 20 26 11 14 1022.4 1022.5 0.0
29/05:00am 10.8 6.5 5.1 68 2.6 N 17 20 9 11 1022.2 1022.3 0.0
29/04:30am 10.1 5.7 4.9 70 2.3 N 17 20 9 11 1022.0 1022.1 0.0
29/04:00am 10.1 6.1 4.9 70 2.3 NNE 15 20 8 11 1021.9 1022.0 0.0
29/03:30am 10.2 5.9 5.2 71 2.3 NNE 17 20 9 11 1021.9 1022.0 0.0
29/03:00am 9.8 5.5 5.2 73 2.1 N 17 19 9 10 1022.0 1022.1 0.0
29/02:30am 9.6 6.4 5.0 73 2.1 N 11 17 6 9 1022.2 1022.3 0.0
29/02:00am 9.6 6.0 5.0 73 2.1 N 13 15 7 8 1022.3 1022.4 0.0
29/01:30am 9.7 5.7 4.9 72 2.2 N 15 17 8 9 1022.3 1022.4 0.0
29/01:00am 10.6 6.7 5.4 70 2.4 N 15 17 8 9 1022.2 1022.3 0.0
29/12:30am 11.2 8.6 5.9 70 2.5 N 9 11 5 6 1022.1 1022.2 0.0
29/12:00am 11.2 8.6 6.3 72 2.3 N 9 11 5 6 1022.0 1022.1 0.0
 
Date/Time
EST
Temp
°C
App
Temp
°C
Dew
Point
°C
Rel
Hum
%
Delta-T
°C
Wind Press
QNH
hPa
Press
MSL
hPa
Rain since
9am
mm
Dir  Spd
km/h
Gust
km/h
Spd
kts
Gust
kts
28/11:30pm 10.5 7.6 6.5 76 1.9 N 11 11 6 6 1022.0 1022.1 0.0
28/11:00pm 10.6 8.0 6.0 73 2.1 N 9 13 5 7 1022.0 1022.1 0.0
28/10:30pm 10.9 7.5 6.1 72 2.2 N 13 15 7 8 1022.0 1022.1 0.0
28/10:00pm 11.1 7.7 5.8 70 2.4 N 13 15 7 8 1022.0 1022.1 0.0
28/09:30pm 11.6 8.3 6.3 70 2.5 N 13 17 7 9 1021.8 1021.9 0.0
28/09:00pm 11.7 8.4 6.2 69 2.6 N 13 19 7 10 1021.4 1021.5 0.0
28/08:30pm 12.6 9.0 6.9 68 2.7 N 15 20 8 11 1021.2 1021.3 0.0
28/08:00pm 12.6 9.4 6.9 68 2.7 N 13 17 7 9 1020.8 1020.9 0.0
28/07:30pm 12.5 9.2 6.3 66 2.9 N 13 17 7 9 1020.6 1020.7 0.0
28/07:00pm 13.9 10.7 7.0 63 3.3 N 13 15 7 8 1020.4 1020.5 0.0
28/06:30pm 14.5 10.6 7.1 61 3.6 N 17 24 9 13 1019.9 1019.9 0.0
28/06:00pm 15.0 12.9 6.8 58 4.0 N 7 11 4 6 1019.6 1019.6 0.0
28/05:30pm 16.1 13.5 6.3 52 4.8 NNW 9 11 5 6 1019.4 1019.4 0.0
28/05:00pm 16.8 14.6 5.4 47 5.5 WNW 6 7 3 4 1019.3 1019.3 0.0
28/04:30pm 16.8 14.5 4.8 45 5.7 W 6 7 3 4 1019.1 1019.1 0.0
28/04:00pm 16.6 13.7 4.6 45 5.6 WSW 9 13 5 7 1019.0 1019.0 0.0
28/03:30pm 16.8 12.3 4.2 43 5.9 WSW 17 20 9 11 1019.1 1019.1 0.0
28/03:00pm 17.4 12.7 5.0 44 5.9 SW 19 22 10 12 1019.0 1019.0 0.0
28/02:30pm 16.7 12.5 5.6 48 5.3 SSW 17 22 9 12 1018.9 1018.9 0.0
28/02:00pm 16.7 12.4 5.3 47 5.4 SW 17 20 9 11 1019.0 1019.0 0.0
28/01:30pm 17.2 14.0 4.9 44 5.9 SSW 11 17 6 9 1019.1 1019.1 0.0
28/01:00pm 17.2 13.2 4.9 44 5.8 N 15 20 8 11 1019.3 1019.3 0.0
28/12:30pm 16.3 13.2 5.6 49 5.1 N 11 17 6 9 1019.9 1019.9 0.0
28/12:00pm 15.7 12.2 5.6 51 4.8 N 13 19 7 10 1020.2 1020.3 0.0
28/11:30am 14.9 10.6 5.1 52 4.6 N 17 24 9 13 1020.4 1020.5 0.0
28/11:00am 14.1 9.3 4.9 54 4.3 N 19 28 10 15 1020.4 1020.5 0.0
28/10:30am 13.2 8.8 4.6 56 3.9 N 17 24 9 13 1020.4 1020.5 0.0
28/10:00am 12.7 7.9 4.4 57 3.8 N 19 24 10 13 1020.3 1020.4 0.0
28/09:30am 12.5 7.4 4.2 57 3.8 N 20 26 11 14 1020.3 1020.4 0.0
28/09:00am 12.0 7.5 4.0 58 3.6 N 17 28 9 15 1020.3 1020.4 0.0

Other Formats:

Comma delimited format used in spreadsheet applications
http://www.bom.gov.au/fwo/IDV60801/IDV60801.94870.axf

JavaScript Object Notation format (JSON) in row-major order
http://www.bom.gov.au/fwo/IDV60801/IDV60801.94870.json